Time;durP1;ratioP1;P1;durP2;ratioP2;P2;SDS_P1;SDS_P2;PMS_P1;PMS_P2;Temp;Humidity;BMP_temperature;BMP_pressure;BME280_temperature;BME280_humidity;BME280_pressure;Samples;Min_cycle;Max_cycle;Signal;HPM_P1;HPM_P2
2023/04/15 00:01:53;;;;;;;11.87;9.27;;;;;;;;;;5072754;28;20252;-90
2023/04/15 00:04:19;;;;;;;9.47;8.50;;;;;;;;;;5072918;28;20169;-91
2023/04/15 00:06:52;;;;;;;9.73;8.73;;;;;;;;;;5072919;28;20188;-91
2023/04/15 00:09:18;;;;;;;11.67;9.37;;;;;;;;;;5070359;28;20207;-91
2023/04/15 00:11:45;;;;;;;9.90;8.83;;;;;;;;;;5073065;28;20268;-91
2023/04/15 00:14:11;;;;;;;10.80;8.80;;;;;;;;;;5065700;28;20671;-91
2023/04/15 00:16:37;;;;;;;10.23;9.20;;;;;;;;;;5066533;28;20235;-91
2023/04/15 00:19:03;;;;;;;11.00;9.50;;;;;;;;;;5073413;28;20204;-91
2023/04/15 00:21:29;;;;;;;10.83;9.53;;;;;;;;;;5073567;28;20567;-90
2023/04/15 00:23:56;;;;;;;11.63;9.47;;;;;;;;;;5073450;28;20172;-90
2023/04/15 00:26:22;;;;;;;12.93;9.13;;;;;;;;;;5075097;28;20554;-91
2023/04/15 00:28:48;;;;;;;11.60;9.73;;;;;;;;;;5093796;28;20185;-91
2023/04/15 00:31:14;;;;;;;15.17;10.40;;;;;;;;;;5093835;28;20248;-90
2023/04/15 00:33:40;;;;;;;12.53;9.27;;;;;;;;;;5092312;28;20206;-89
2023/04/15 00:36:07;;;;;;;11.07;9.77;;;;;;;;;;5092347;28;20212;-90
2023/04/15 00:38:33;;;;;;;11.53;9.70;;;;;;;;;;5079384;28;20483;-90
2023/04/15 00:40:59;;;;;;;12.40;9.77;;;;;;;;;;5072908;28;20256;-90
2023/04/15 00:43:26;;;;;;;11.00;9.87;;;;;;;;;;5071955;28;20194;-90
2023/04/15 00:46:11;;;;;;;11.20;10.00;;;;;;;;;;5073197;28;20193;-90
2023/04/15 00:48:37;;;;;;;11.23;9.93;;;;;;;;;;5081523;28;20188;-90
2023/04/15 00:51:03;;;;;;;11.07;9.80;;;;;;;;;;5072470;28;20367;-90
2023/04/15 00:53:30;;;;;;;11.97;10.77;;;;;;;;;;5072409;28;20161;-90
2023/04/15 00:55:56;;;;;;;12.17;10.63;;;;;;;;;;5072816;28;20173;-90
2023/04/15 00:58:22;;;;;;;12.03;10.77;;;;;;;;;;5072612;28;20195;-90
2023/04/15 01:00:53;;;;;;;13.27;10.80;;;;;;;;;;5073049;28;20222;-90
2023/04/15 01:03:19;;;;;;;13.20;11.53;;;;;;;;;;5063249;28;20162;-91
2023/04/15 01:05:45;;;;;;;12.97;11.50;;;;;;;;;;5072657;28;20246;-90
2023/04/15 01:08:11;;;;;;;12.73;11.37;;;;;;;;;;5072260;28;20177;-91
2023/04/15 01:10:38;;;;;;;12.50;11.20;;;;;;;;;;5077133;28;20516;-90
2023/04/15 01:13:04;;;;;;;13.53;11.47;;;;;;;;;;5081310;28;20191;-90
2023/04/15 01:15:30;;;;;;;12.10;10.90;;;;;;;;;;5080091;28;20181;-90
2023/04/15 01:18:00;;;;;;;13.57;10.23;;;;;;;;;;5079927;28;20165;-90
2023/04/15 01:20:26;;;;;;;12.33;11.07;;;;;;;;;;5071772;28;20335;-90
2023/04/15 01:22:54;;;;;;;12.80;11.33;;;;;;;;;;5072039;28;20176;-91
2023/04/15 01:25:31;;;;;;;13.27;11.80;;;;;;;;;;5069154;28;20201;-91
2023/04/15 01:27:58;;;;;;;13.53;11.90;;;;;;;;;;5076304;28;20621;-90
2023/04/15 01:30:24;;;;;;;12.53;11.23;;;;;;;;;;5078794;28;20161;-91
2023/04/15 01:32:51;;;;;;;12.30;11.10;;;;;;;;;;5079321;28;20268;-93
2023/04/15 01:35:18;;;;;;;13.00;11.50;;;;;;;;;;5076915;28;20191;-92
2023/04/15 01:37:44;;;;;;;14.50;12.17;;;;;;;;;;5077078;28;20181;-90
2023/04/15 01:40:10;;;;;;;14.70;12.97;;;;;;;;;;5077475;28;20208;-90
2023/04/15 01:42:37;;;;;;;13.03;11.73;;;;;;;;;;5077075;28;20173;-90
2023/04/15 01:45:03;;;;;;;14.37;12.83;;;;;;;;;;5076868;28;20192;-91
2023/04/15 01:47:29;;;;;;;15.20;13.60;;;;;;;;;;5077863;28;20630;-90
2023/04/15 01:49:55;;;;;;;14.90;13.27;;;;;;;;;;5077652;28;20177;-90
2023/04/15 01:52:22;;;;;;;15.30;13.70;;;;;;;;;;5077057;28;20207;-91
2023/04/15 01:54:48;;;;;;;16.50;14.77;;;;;;;;;;5078787;28;20157;-91
2023/04/15 01:57:14;;;;;;;15.43;13.70;;;;;;;;;;5077639;28;20743;-91
2023/04/15 01:59:41;;;;;;;15.53;13.93;;;;;;;;;;5078438;28;20270;-90
2023/04/15 02:02:07;;;;;;;16.23;14.63;;;;;;;;;;5076304;28;20197;-89
2023/04/15 02:04:33;;;;;;;15.47;13.80;;;;;;;;;;5077980;28;20184;-90
2023/04/15 02:06:59;;;;;;;17.13;14.70;;;;;;;;;;5073933;28;20269;-91
2023/04/15 02:09:25;;;;;;;19.10;15.80;;;;;;;;;;5075602;28;20223;-90
2023/04/15 02:11:53;;;;;;;17.63;15.13;;;;;;;;;;5079004;28;20168;-91
2023/04/15 02:14:19;;;;;;;18.33;14.90;;;;;;;;;;5076277;28;20181;-90
2023/04/15 02:16:45;;;;;;;17.93;15.57;;;;;;;;;;5077789;28;20653;-91
2023/04/15 02:19:11;;;;;;;18.37;15.73;;;;;;;;;;5076693;28;20177;-90
2023/04/15 02:21:38;;;;;;;16.77;15.03;;;;;;;;;;5077129;28;20213;-90
2023/04/15 02:24:05;;;;;;;15.87;14.27;;;;;;;;;;5077902;28;20185;-90
2023/04/15 02:26:31;;;;;;;18.03;16.07;;;;;;;;;;5077523;28;20278;-90
2023/04/15 02:28:57;;;;;;;17.90;16.00;;;;;;;;;;5078244;28;20177;-90
2023/04/15 02:31:24;;;;;;;19.73;16.30;;;;;;;;;;5076798;28;20226;-90
2023/04/15 02:33:50;;;;;;;17.97;16.07;;;;;;;;;;5077949;28;20184;-90
2023/04/15 02:36:16;;;;;;;18.00;16.10;;;;;;;;;;5077408;28;20984;-90
2023/04/15 02:38:42;;;;;;;19.43;17.40;;;;;;;;;;5076572;28;20248;-90
2023/04/15 02:41:11;;;;;;;18.27;16.37;;;;;;;;;;5074660;28;20203;-90
2023/04/15 02:43:38;;;;;;;18.50;16.60;;;;;;;;;;5072296;28;20185;-90
2023/04/15 02:46:05;;;;;;;19.70;16.17;;;;;;;;;;5074063;28;20208;-90
2023/04/15 02:48:31;;;;;;;21.73;18.23;;;;;;;;;;5074044;28;20655;-90
2023/04/15 02:51:21;;;;;;;18.63;16.77;;;;;;;;;;5074014;28;20188;-90
2023/04/15 02:53:48;;;;;;;19.37;16.67;;;;;;;;;;5074970;28;20227;-90
2023/04/15 02:56:14;;;;;;;18.40;16.50;;;;;;;;;;5073752;28;20193;-89
2023/04/15 02:58:41;;;;;;;19.53;17.03;;;;;;;;;;5073859;28;20173;-90
2023/04/15 03:01:07;;;;;;;18.57;16.00;;;;;;;;;;5074548;28;20227;-90
2023/04/15 03:03:34;;;;;;;19.17;17.07;;;;;;;;;;5074936;28;20175;-90
2023/04/15 03:06:00;;;;;;;19.03;16.93;;;;;;;;;;5074264;28;20309;-90
2023/04/15 03:08:26;;;;;;;18.50;15.93;;;;;;;;;;5073286;28;20185;-91
2023/04/15 03:10:53;;;;;;;20.30;15.83;;;;;;;;;;5074458;28;20181;-90
2023/04/15 03:13:19;;;;;;;17.63;15.83;;;;;;;;;;5072029;28;20217;-89
2023/04/15 03:15:48;;;;;;;18.37;16.50;;;;;;;;;;5074212;28;20203;-89
2023/04/15 03:18:14;;;;;;;18.17;16.27;;;;;;;;;;5074434;28;20169;-89
2023/04/15 03:20:40;;;;;;;18.43;16.53;;;;;;;;;;5074463;28;20205;-89
2023/04/15 03:23:06;;;;;;;19.80;17.37;;;;;;;;;;5073941;28;20218;-89
2023/04/15 03:25:32;;;;;;;16.97;15.13;;;;;;;;;;5075043;28;20185;-89
2023/04/15 03:27:59;;;;;;;17.33;15.30;;;;;;;;;;5074571;28;20204;-89
2023/04/15 03:30:25;;;;;;;17.37;15.67;;;;;;;;;;5073117;28;20260;-89
2023/04/15 03:32:51;;;;;;;16.93;15.17;;;;;;;;;;5073572;28;20254;-90
2023/04/15 03:35:17;;;;;;;20.17;16.23;;;;;;;;;;5072532;28;20187;-89
2023/04/15 03:37:43;;;;;;;17.57;15.77;;;;;;;;;;5074131;28;20169;-89
2023/04/15 03:40:09;;;;;;;17.87;16.07;;;;;;;;;;5072290;28;20176;-89
2023/04/15 03:42:36;;;;;;;17.60;15.70;;;;;;;;;;5079223;28;20181;-88
2023/04/15 03:45:02;;;;;;;20.30;16.27;;;;;;;;;;5095072;28;20196;-89
2023/04/15 03:47:28;;;;;;;17.17;15.37;;;;;;;;;;5092275;28;20173;-89
2023/04/15 03:49:54;;;;;;;17.53;15.77;;;;;;;;;;5092755;28;20264;-89
2023/04/15 03:52:20;;;;;;;16.63;15.03;;;;;;;;;;5076824;28;20230;-88
2023/04/15 03:54:46;;;;;;;18.67;15.83;;;;;;;;;;5076794;28;20177;-89
2023/04/15 03:57:12;;;;;;;16.97;14.03;;;;;;;;;;5088183;28;20226;-89
2023/04/15 03:59:38;;;;;;;17.67;15.87;;;;;;;;;;5103971;28;20165;-89
2023/04/15 04:02:04;;;;;;;16.17;14.57;;;;;;;;;;5087070;28;20185;-89
2023/04/15 04:04:30;;;;;;;16.43;14.73;;;;;;;;;;5086015;28;20169;-88
2023/04/15 04:06:56;;;;;;;16.37;14.57;;;;;;;;;;5077299;28;20297;-89
2023/04/15 04:09:22;;;;;;;16.27;14.67;;;;;;;;;;5072607;28;20169;-89
2023/04/15 04:11:48;;;;;;;15.60;14.00;;;;;;;;;;5073435;28;20168;-89
2023/04/15 04:14:14;;;;;;;17.23;15.20;;;;;;;;;;5072343;28;20169;-89
2023/04/15 04:16:40;;;;;;;15.43;13.83;;;;;;;;;;5072742;28;20498;-89
2023/04/15 04:19:06;;;;;;;16.83;14.10;;;;;;;;;;5072065;28;20584;-89
2023/04/15 04:21:33;;;;;;;17.83;15.50;;;;;;;;;;5072054;28;20209;-89
2023/04/15 04:23:59;;;;;;;17.00;15.20;;;;;;;;;;5072508;28;20173;-88
2023/04/15 04:26:25;;;;;;;17.03;15.10;;;;;;;;;;5072321;28;20569;-89
2023/04/15 04:28:51;;;;;;;15.93;14.13;;;;;;;;;;5073340;28;20617;-88
2023/04/15 04:31:18;;;;;;;15.87;14.27;;;;;;;;;;5072059;28;20222;-88
2023/04/15 04:33:44;;;;;;;16.07;14.37;;;;;;;;;;5072105;28;20227;-89
2023/04/15 04:36:10;;;;;;;16.17;14.47;;;;;;;;;;5072764;28;20184;-89
2023/04/15 04:38:36;;;;;;;15.30;13.80;;;;;;;;;;5072790;28;20169;-89
2023/04/15 04:41:02;;;;;;;15.93;14.17;;;;;;;;;;5072930;28;20176;-88
2023/04/15 04:43:28;;;;;;;15.10;13.50;;;;;;;;;;5072452;28;20264;-89
2023/04/15 04:45:54;;;;;;;16.03;14.33;;;;;;;;;;5072173;28;20212;-90
2023/04/15 04:48:20;;;;;;;15.07;13.57;;;;;;;;;;5072478;28;20176;-89
2023/04/15 04:50:46;;;;;;;16.57;13.93;;;;;;;;;;5089231;28;20242;-90
2023/04/15 04:53:12;;;;;;;15.90;14.20;;;;;;;;;;5072884;28;20187;-89
2023/04/15 04:55:38;;;;;;;15.53;13.93;;;;;;;;;;5072255;28;20526;-89
2023/04/15 04:58:04;;;;;;;16.00;14.40;;;;;;;;;;5071994;28;20188;-90
2023/04/15 05:00:30;;;;;;;16.57;14.77;;;;;;;;;;5071798;28;20165;-89
2023/04/15 05:02:57;;;;;;;15.37;13.90;;;;;;;;;;5072771;28;20639;-90
2023/04/15 05:05:23;;;;;;;15.17;13.47;;;;;;;;;;5072312;28;20653;-89
2023/04/15 05:07:49;;;;;;;15.27;13.57;;;;;;;;;;5071594;28;20267;-89
2023/04/15 05:10:16;;;;;;;15.87;13.87;;;;;;;;;;5071110;28;20181;-89
2023/04/15 05:12:43;;;;;;;15.90;14.23;;;;;;;;;;5072385;28;20165;-88
2023/04/15 05:15:09;;;;;;;15.50;13.97;;;;;;;;;;5073183;28;20326;-90
2023/04/15 05:17:35;;;;;;;16.43;14.77;;;;;;;;;;5072393;28;20218;-89
2023/04/15 05:20:02;;;;;;;15.20;13.60;;;;;;;;;;5072056;28;20372;-89
2023/04/15 05:22:28;;;;;;;15.50;13.90;;;;;;;;;;5072459;28;20165;-89
2023/04/15 05:24:57;;;;;;;17.07;15.20;;;;;;;;;;5068665;28;20256;-90
2023/04/15 05:27:23;;;;;;;15.40;13.57;;;;;;;;;;5071343;28;20183;-89
2023/04/15 05:29:49;;;;;;;16.63;14.50;;;;;;;;;;5072172;28;20173;-90
2023/04/15 05:32:16;;;;;;;15.83;14.20;;;;;;;;;;5071724;28;20185;-90
2023/04/15 05:34:42;;;;;;;14.37;12.93;;;;;;;;;;5072355;28;20226;-89
2023/04/15 05:37:08;;;;;;;15.70;14.10;;;;;;;;;;5072570;28;20181;-90
2023/04/15 05:39:34;;;;;;;16.97;15.30;;;;;;;;;;5072687;28;20173;-89
2023/04/15 05:42:00;;;;;;;16.63;14.93;;;;;;;;;;5071498;28;20167;-89
2023/04/15 05:44:26;;;;;;;17.13;14.63;;;;;;;;;;5069961;28;20180;-89
2023/04/15 05:46:52;;;;;;;16.60;14.73;;;;;;;;;;5072419;28;20217;-89
2023/04/15 05:49:18;;;;;;;16.33;14.13;;;;;;;;;;5072368;28;20287;-90
2023/04/15 05:51:44;;;;;;;17.63;14.30;;;;;;;;;;5071610;28;20178;-89
2023/04/15 05:54:10;;;;;;;15.97;14.27;;;;;;;;;;5070070;28;20169;-89
2023/04/15 05:56:36;;;;;;;16.90;14.40;;;;;;;;;;5068944;28;20180;-91
2023/04/15 05:59:02;;;;;;;18.53;14.87;;;;;;;;;;5069651;28;20238;-89
2023/04/15 06:01:29;;;;;;;16.93;15.17;;;;;;;;;;5069380;28;20185;-89
2023/04/15 06:03:55;;;;;;;14.97;13.47;;;;;;;;;;5068659;28;20174;-90
2023/04/15 06:06:21;;;;;;;16.13;13.63;;;;;;;;;;5070545;28;20219;-89
2023/04/15 06:08:47;;;;;;;15.03;12.97;;;;;;;;;;5071777;28;20173;-89
2023/04/15 06:11:13;;;;;;;14.97;13.47;;;;;;;;;;5070798;28;20177;-89
2023/04/15 06:13:39;;;;;;;17.30;14.83;;;;;;;;;;5070147;28;20264;-87
2023/04/15 06:16:05;;;;;;;14.77;13.27;;;;;;;;;;5072378;28;20187;-86
2023/04/15 06:18:31;;;;;;;14.30;12.87;;;;;;;;;;5073287;28;20248;-86
2023/04/15 06:20:57;;;;;;;13.67;12.23;;;;;;;;;;5071646;28;20279;-86
2023/04/15 06:23:23;;;;;;;14.60;13.10;;;;;;;;;;5072385;28;20177;-86
2023/04/15 06:25:49;;;;;;;14.73;13.27;;;;;;;;;;5072190;28;20646;-88
2023/04/15 06:28:15;;;;;;;17.70;14.83;;;;;;;;;;5073819;28;20177;-87
2023/04/15 06:30:41;;;;;;;15.33;13.73;;;;;;;;;;5073018;28;20169;-86
2023/04/15 06:33:09;;;;;;;14.47;12.73;;;;;;;;;;5073358;28;20331;-86
2023/04/15 06:35:35;;;;;;;14.67;11.50;;;;;;;;;;5072296;28;20211;-88
2023/04/15 06:38:01;;;;;;;13.13;11.83;;;;;;;;;;5073471;28;20281;-85
2023/04/15 06:40:27;;;;;;;14.23;12.73;;;;;;;;;;5072685;28;20272;-86
2023/04/15 06:42:53;;;;;;;14.70;12.77;;;;;;;;;;5072865;28;20220;-87
2023/04/15 06:45:19;;;;;;;14.13;12.73;;;;;;;;;;5076746;28;20177;-86
2023/04/15 06:47:45;;;;;;;14.07;12.67;;;;;;;;;;5077149;28;20654;-84
2023/04/15 06:50:11;;;;;;;15.27;12.17;;;;;;;;;;5076021;28;20173;-86
2023/04/15 06:52:37;;;;;;;13.43;12.13;;;;;;;;;;5075132;28;20177;-86
2023/04/15 06:55:04;;;;;;;15.07;12.73;;;;;;;;;;5072455;28;20190;-86
2023/04/15 06:57:30;;;;;;;12.93;11.63;;;;;;;;;;5073727;28;20732;-86
2023/04/15 06:59:56;;;;;;;13.80;12.40;;;;;;;;;;5082908;28;20176;-86
2023/04/15 07:02:22;;;;;;;13.83;12.40;;;;;;;;;;5080749;28;20173;-86
2023/04/15 07:04:48;;;;;;;13.60;12.20;;;;;;;;;;5078840;28;20180;-86
2023/04/15 07:07:16;;;;;;;14.07;12.03;;;;;;;;;;5079385;28;20181;-87
2023/04/15 07:09:42;;;;;;;12.77;11.37;;;;;;;;;;5075920;28;20168;-86
2023/04/15 07:12:08;;;;;;;13.90;10.83;;;;;;;;;;5071709;28;20181;-88
2023/04/15 07:14:35;;;;;;;14.23;11.30;;;;;;;;;;5071257;28;20230;-89
2023/04/15 07:17:01;;;;;;;13.03;10.00;;;;;;;;;;5072298;28;20314;-88
2023/04/15 07:19:27;;;;;;;12.20;10.67;;;;;;;;;;5072288;28;20719;-88
2023/04/15 07:21:53;;;;;;;10.97;9.27;;;;;;;;;;5070775;28;20677;-88
2023/04/15 07:24:19;;;;;;;11.07;10.00;;;;;;;;;;5080723;28;20173;-86
2023/04/15 07:26:45;;;;;;;10.83;9.73;;;;;;;;;;5071126;28;20278;-88
2023/04/15 07:29:11;;;;;;;9.17;8.33;;;;;;;;;;5071577;28;20177;-89
2023/04/15 07:31:37;;;;;;;10.50;9.40;;;;;;;;;;5071461;28;20173;-88
2023/04/15 07:34:04;;;;;;;10.67;9.57;;;;;;;;;;5070565;28;20175;-86
2023/04/15 07:36:30;;;;;;;10.00;9.10;;;;;;;;;;5071499;28;20235;-88
2023/04/15 07:38:56;;;;;;;9.80;8.80;;;;;;;;;;5071085;28;20606;-87
2023/04/15 07:41:23;;;;;;;8.53;7.73;;;;;;;;;;5070262;28;20216;-88
2023/04/15 07:43:49;;;;;;;8.33;7.53;;;;;;;;;;5072370;28;20223;-88
2023/04/15 07:46:15;;;;;;;8.87;8.00;;;;;;;;;;5073086;28;20203;-91
2023/04/15 07:48:41;;;;;;;10.10;8.07;;;;;;;;;;5072918;28;20200;-92
2023/04/15 07:51:09;;;;;;;9.53;7.67;;;;;;;;;;5070700;28;20173;-90
2023/04/15 07:53:36;;;;;;;7.40;6.37;;;;;;;;;;5070728;28;20606;-88
2023/04/15 07:56:02;;;;;;;8.40;7.60;;;;;;;;;;5070419;28;20173;-86
2023/04/15 07:58:28;;;;;;;7.93;7.13;;;;;;;;;;5070304;28;20177;-87
2023/04/15 08:00:54;;;;;;;8.77;7.40;;;;;;;;;;5069936;28;20169;-86
2023/04/15 08:03:21;;;;;;;7.50;6.70;;;;;;;;;;5080634;28;20192;-87
2023/04/15 08:05:47;;;;;;;7.20;6.50;;;;;;;;;;5069265;28;20695;-93
2023/04/15 08:08:13;;;;;;;7.73;6.93;;;;;;;;;;5072517;28;20268;-88
2023/04/15 08:10:40;;;;;;;7.33;6.63;;;;;;;;;;5070961;28;20724;-90
2023/04/15 08:13:08;;;;;;;8.83;7.77;;;;;;;;;;5071220;28;20236;-91
2023/04/15 08:15:34;;;;;;;8.33;6.40;;;;;;;;;;5072777;28;20183;-91
2023/04/15 08:18:00;;;;;;;7.97;7.23;;;;;;;;;;5072972;28;20177;-90
2023/04/15 08:20:27;;;;;;;7.47;6.83;;;;;;;;;;5071867;28;20266;-89
2023/04/15 08:22:53;;;;;;;7.50;6.80;;;;;;;;;;5071469;28;20172;-91
2023/04/15 08:25:19;;;;;;;8.17;7.37;;;;;;;;;;5068784;28;20182;-92
2023/04/15 08:27:45;;;;;;;7.93;7.13;;;;;;;;;;5072040;28;20509;-88
2023/04/15 08:30:11;;;;;;;7.37;6.67;;;;;;;;;;5071493;28;20169;-91
2023/04/15 08:32:38;;;;;;;6.77;6.13;;;;;;;;;;5071417;28;20202;-90
2023/04/15 08:35:04;;;;;;;7.03;6.33;;;;;;;;;;5071057;28;20634;-87
2023/04/15 08:37:30;;;;;;;7.10;6.50;;;;;;;;;;5069811;28;20199;-90
2023/04/15 08:39:56;;;;;;;6.70;6.10;;;;;;;;;;5072578;28;20626;-90
2023/04/15 08:42:34;;;;;;;7.40;6.73;;;;;;;;;;5069990;28;20188;-90
2023/04/15 08:45:00;;;;;;;6.30;5.70;;;;;;;;;;5072050;28;20621;-90
2023/04/15 08:47:29;;;;;;;6.60;6.00;;;;;;;;;;5071254;28;20165;-90
2023/04/15 08:49:57;;;;;;;6.40;5.80;;;;;;;;;;5069418;28;20165;-89
2023/04/15 08:52:24;;;;;;;6.40;5.80;;;;;;;;;;5069775;28;20195;-90
2023/04/15 08:54:51;;;;;;;7.43;5.90;;;;;;;;;;5072076;28;20172;-89
2023/04/15 08:57:17;;;;;;;6.33;5.77;;;;;;;;;;5075964;28;20278;-87
2023/04/15 08:59:56;;;;;;;6.53;5.77;;;;;;;;;;5071184;28;20164;-89
2023/04/15 09:02:23;;;;;;;7.20;5.87;;;;;;;;;;5069126;28;20180;-89
2023/04/15 09:04:49;;;;;;;5.73;5.23;;;;;;;;;;5068954;28;20192;-89
2023/04/15 09:07:15;;;;;;;6.17;5.50;;;;;;;;;;5070327;28;20169;-88
2023/04/15 09:09:41;;;;;;;6.33;5.70;;;;;;;;;;5071681;28;20183;-88
2023/04/15 09:12:08;;;;;;;5.67;5.13;;;;;;;;;;5070351;28;20173;-88
2023/04/15 09:14:34;;;;;;;5.83;5.30;;;;;;;;;;5070067;28;20173;-89
2023/04/15 09:17:01;;;;;;;6.67;4.80;;;;;;;;;;5070174;28;20188;-87
2023/04/15 09:19:27;;;;;;;4.97;4.57;;;;;;;;;;5072100;28;20191;-88
2023/04/15 09:21:53;;;;;;;5.70;5.10;;;;;;;;;;5080726;28;20221;-88
2023/04/15 09:24:20;;;;;;;5.10;4.60;;;;;;;;;;5079027;28;20614;-88
2023/04/15 09:26:46;;;;;;;5.17;4.70;;;;;;;;;;5072218;28;20254;-89
2023/04/15 09:29:12;;;;;;;7.00;4.60;;;;;;;;;;5071134;28;20638;-88
2023/04/15 09:31:39;;;;;;;5.60;4.93;;;;;;;;;;5072587;28;20177;-86
2023/04/15 09:34:07;;;;;;;5.57;4.93;;;;;;;;;;5067357;28;20184;-89
2023/04/15 09:36:53;;;;;;;7.47;5.20;;;;;;;;;;5068328;28;20181;-88
2023/04/15 09:39:20;;;;;;;9.50;4.70;;;;;;;;;;5069776;28;20169;-87
2023/04/15 09:41:46;;;;;;;4.50;4.10;;;;;;;;;;5068611;28;20203;-86
2023/04/15 09:44:25;;;;;;;6.03;4.80;;;;;;;;;;5070141;28;20181;-88
2023/04/15 09:46:51;;;;;;;5.27;4.77;;;;;;;;;;5064887;28;20221;-90
2023/04/15 09:49:17;;;;;;;6.70;4.90;;;;;;;;;;5070192;28;20172;-91
2023/04/15 09:51:43;;;;;;;4.90;4.40;;;;;;;;;;5067472;28;20181;-91
2023/04/15 09:54:09;;;;;;;5.70;4.63;;;;;;;;;;5067999;28;20560;-87
2023/04/15 09:56:42;;;;;;;5.33;4.50;;;;;;;;;;5064884;28;20181;-89
2023/04/15 09:59:08;;;;;;;4.93;4.40;;;;;;;;;;5071667;28;20287;-86
2023/04/15 10:01:35;;;;;;;7.60;5.00;;;;;;;;;;5072635;28;20189;-87
2023/04/15 10:04:05;;;;;;;4.73;4.23;;;;;;;;;;5074030;28;20174;-88
2023/04/15 10:06:31;;;;;;;5.00;4.60;;;;;;;;;;5072588;28;20315;-88
2023/04/15 10:08:58;;;;;;;5.70;4.50;;;;;;;;;;5073120;28;20181;-87
2023/04/15 10:11:24;;;;;;;4.50;4.10;;;;;;;;;;5072704;28;20184;-87
2023/04/15 10:13:51;;;;;;;5.20;4.80;;;;;;;;;;5074251;28;20216;-88
2023/04/15 10:16:19;;;;;;;6.37;4.37;;;;;;;;;;5072879;28;20644;-87
2023/04/15 10:18:47;;;;;;;5.00;4.50;;;;;;;;;;5072278;28;20166;-87
2023/04/15 10:21:17;;;;;;;5.50;4.70;;;;;;;;;;5069809;28;20216;-88
2023/04/15 10:23:43;;;;;;;4.57;4.17;;;;;;;;;;5068004;28;20271;-88
2023/04/15 10:26:11;;;;;;;6.93;4.40;;;;;;;;;;5067489;28;20197;-88
2023/04/15 10:28:37;;;;;;;4.33;3.90;;;;;;;;;;5076171;28;20642;-86
2023/04/15 10:31:37;;;;;;;4.80;4.40;;;;;;;;;;5071959;28;20208;-88
2023/04/15 10:34:05;;;;;;;4.27;3.90;;;;;;;;;;5073230;28;20230;-86
2023/04/15 10:36:32;;;;;;;4.93;4.40;;;;;;;;;;5072742;28;20218;-86
2023/04/15 10:38:58;;;;;;;4.63;4.20;;;;;;;;;;5072582;28;20648;-86
2023/04/15 10:41:25;;;;;;;4.47;4.07;;;;;;;;;;5074024;28;20185;-88
2023/04/15 10:44:04;;;;;;;4.90;4.40;;;;;;;;;;5075122;28;20169;-90
2023/04/15 10:46:44;;;;;;;5.13;4.17;;;;;;;;;;5073295;28;20205;-91
2023/04/15 10:49:16;;;;;;;5.67;4.20;;;;;;;;;;5075019;28;20179;-93
2023/04/15 10:51:43;;;;;;;4.43;4.03;;;;;;;;;;5075184;28;20200;-93
2023/04/15 10:54:17;;;;;;;6.77;4.13;;;;;;;;;;5073542;28;20193;-92
2023/04/15 10:56:44;;;;;;;7.10;6.40;;;;;;;;;;5070018;28;20590;-93
2023/04/15 10:59:11;;;;;;;5.43;4.93;;;;;;;;;;5075152;28;20189;-95
2023/04/15 11:01:55;;;;;;;8.80;4.87;;;;;;;;;;5068813;28;20215;-93
2023/04/15 11:04:40;;;;;;;4.83;4.43;;;;;;;;;;5075235;28;20173;-92
2023/04/15 11:07:06;;;;;;;7.23;4.90;;;;;;;;;;5075149;28;20254;-93
2023/04/15 11:09:33;;;;;;;6.23;4.57;;;;;;;;;;5075019;28;20173;-94
2023/04/15 11:12:07;;;;;;;5.83;5.00;;;;;;;;;;5074735;28;20169;-92
2023/04/15 11:14:36;;;;;;;5.70;4.83;;;;;;;;;;5074140;28;20172;-93
2023/04/15 11:17:11;;;;;;;9.20;5.73;;;;;;;;;;5074713;28;20173;-93
2023/04/15 11:19:38;;;;;;;6.07;5.23;;;;;;;;;;5076138;28;20191;-95
2023/04/15 11:22:08;;;;;;;5.70;5.20;;;;;;;;;;5073402;28;20239;-93
2023/04/15 11:24:34;;;;;;;6.13;5.53;;;;;;;;;;5067896;28;20205;-91
2023/04/15 11:27:01;;;;;;;5.87;5.30;;;;;;;;;;5075200;28;20224;-94
2023/04/15 11:29:31;;;;;;;6.43;5.23;;;;;;;;;;5071520;28;20185;-95
2023/04/15 11:32:08;;;;;;;6.30;4.70;;;;;;;;;;5075665;28;20173;-93
2023/04/15 11:34:35;;;;;;;5.00;4.60;;;;;;;;;;5075161;28;20640;-92
2023/04/15 11:37:04;;;;;;;5.77;5.23;;;;;;;;;;5076553;28;20207;-90
2023/04/15 11:39:30;;;;;;;5.47;4.97;;;;;;;;;;5074062;28;20238;-88
2023/04/15 11:41:56;;;;;;;5.87;5.00;;;;;;;;;;5073647;28;20209;-91
2023/04/15 11:44:22;;;;;;;5.57;5.07;;;;;;;;;;5073404;28;20181;-91
2023/04/15 11:46:48;;;;;;;6.50;4.77;;;;;;;;;;5072799;28;20228;-90
2023/04/15 11:49:27;;;;;;;7.40;5.20;;;;;;;;;;5075104;28;20177;-90
2023/04/15 11:51:53;;;;;;;6.70;5.27;;;;;;;;;;5075224;28;20637;-91
2023/04/15 11:54:19;;;;;;;6.57;5.97;;;;;;;;;;5076201;28;20276;-91
2023/04/15 11:56:50;;;;;;;5.40;4.90;;;;;;;;;;5080845;28;20230;-91
2023/04/15 11:59:16;;;;;;;5.83;4.30;;;;;;;;;;5079443;28;20271;-89
2023/04/15 12:01:42;;;;;;;4.43;4.03;;;;;;;;;;5083709;28;20180;-93
2023/04/15 12:04:20;;;;;;;4.30;3.90;;;;;;;;;;5075567;28;20287;-91
2023/04/15 12:06:46;;;;;;;4.90;4.17;;;;;;;;;;5073678;28;20657;-89
2023/04/15 12:09:13;;;;;;;5.30;4.23;;;;;;;;;;5074346;28;20185;-92
2023/04/15 12:11:46;;;;;;;4.57;4.17;;;;;;;;;;5070322;28;20296;-93
2023/04/15 12:14:12;;;;;;;5.37;3.97;;;;;;;;;;5073976;28;20177;-94
2023/04/15 12:16:42;;;;;;;4.70;4.20;;;;;;;;;;5066577;28;20230;-92
2023/04/15 12:19:10;;;;;;;5.27;4.47;;;;;;;;;;5071067;28;20169;-93
2023/04/15 12:21:37;;;;;;;4.20;3.47;;;;;;;;;;5073723;28;20237;-92
2023/04/15 12:24:04;;;;;;;4.50;4.10;;;;;;;;;;5077685;28;20173;-93
2023/04/15 12:26:37;;;;;;;4.40;3.60;;;;;;;;;;5076185;28;20280;-93
2023/04/15 12:29:07;;;;;;;4.17;3.50;;;;;;;;;;5072627;28;20256;-93
2023/04/15 12:31:47;;;;;;;5.23;3.80;;;;;;;;;;5073652;28;20172;-95
2023/04/15 12:34:14;;;;;;;4.80;3.10;;;;;;;;;;5070819;28;20188;-92
2023/04/15 12:36:41;;;;;;;3.60;3.30;;;;;;;;;;5072477;28;20327;-91
2023/04/15 12:39:07;;;;;;;4.33;3.90;;;;;;;;;;5072534;28;20580;-92
2023/04/15 12:41:33;;;;;;;5.37;3.93;;;;;;;;;;5073440;28;20495;-92
2023/04/15 12:43:59;;;;;;;7.23;3.83;;;;;;;;;;5067759;28;20191;-91
2023/04/15 12:46:25;;;;;;;4.33;3.93;;;;;;;;;;5073940;28;20890;-92
2023/04/15 12:48:52;;;;;;;4.73;3.67;;;;;;;;;;5081640;28;20184;-91
2023/04/15 12:51:20;;;;;;;4.73;4.33;;;;;;;;;;5075481;28;20570;-93
2023/04/15 12:53:47;;;;;;;5.00;4.60;;;;;;;;;;5072783;28;20205;-92
2023/04/15 12:56:13;;;;;;;4.37;3.97;;;;;;;;;;5075952;28;20185;-94
2023/04/15 12:58:39;;;;;;;17.57;14.70;;;;;;;;;;5074262;28;20173;-92
2023/04/15 13:01:05;;;;;;;10.53;9.47;;;;;;;;;;5074225;28;20633;-92
2023/04/15 13:03:31;;;;;;;5.37;4.87;;;;;;;;;;5074592;28;20161;-95
2023/04/15 13:05:57;;;;;;;4.43;3.80;;;;;;;;;;5074628;28;20207;-95
2023/04/15 13:08:24;;;;;;;3.70;3.40;;;;;;;;;;5073834;28;20288;-95
2023/04/15 13:10:50;;;;;;;4.13;3.60;;;;;;;;;;5074725;28;20179;-95
2023/04/15 13:13:16;;;;;;;4.30;3.47;;;;;;;;;;5074971;28;20187;-94
2023/04/15 13:15:44;;;;;;;7.03;4.20;;;;;;;;;;5063158;28;20191;-90
2023/04/15 13:18:10;;;;;;;5.23;4.50;;;;;;;;;;5071970;28;20201;-91
2023/04/15 13:20:36;;;;;;;6.03;3.40;;;;;;;;;;5072494;28;20221;-92
2023/04/15 13:23:02;;;;;;;10.80;2.97;;;;;;;;;;5069645;28;20226;-91
2023/04/15 13:25:28;;;;;;;3.50;2.90;;;;;;;;;;5072262;28;20216;-92
2023/04/15 13:27:54;;;;;;;4.03;3.37;;;;;;;;;;5072682;28;20169;-90
2023/04/15 13:30:20;;;;;;;190.63;107.57;;;;;;;;;;5066997;28;20694;-91
2023/04/15 13:32:46;;;;;;;269.13;186.43;;;;;;;;;;5069669;28;20169;-92
2023/04/15 13:35:13;;;;;;;186.60;140.30;;;;;;;;;;5066371;28;20184;-90
2023/04/15 13:37:39;;;;;;;100.27;71.87;;;;;;;;;;5103587;28;20183;-91
2023/04/15 13:40:06;;;;;;;202.40;140.70;;;;;;;;;;5069129;28;20267;-90
2023/04/15 13:42:32;;;;;;;34.67;23.07;;;;;;;;;;5069039;28;20231;-91
2023/04/15 13:44:58;;;;;;;20.60;16.70;;;;;;;;;;5068548;28;20250;-90
2023/04/15 13:47:25;;;;;;;69.43;40.47;;;;;;;;;;5069782;28;20668;-89
2023/04/15 13:49:53;;;;;;;9.33;6.63;;;;;;;;;;5069973;28;20208;-91
2023/04/15 13:52:19;;;;;;;9.87;7.70;;;;;;;;;;5072187;28;20169;-93
2023/04/15 13:54:46;;;;;;;5.27;4.03;;;;;;;;;;5072519;28;20187;-95
2023/04/15 13:57:12;;;;;;;5.83;2.83;;;;;;;;;;5072339;28;20268;-95
2023/04/15 13:59:38;;;;;;;27.07;23.87;;;;;;;;;;5068128;28;20209;-90
2023/04/15 14:02:04;;;;;;;34.57;25.30;;;;;;;;;;5070843;28;20173;-91
2023/04/15 14:04:31;;;;;;;65.03;45.80;;;;;;;;;;5071311;28;20164;-90
2023/04/15 14:06:57;;;;;;;92.67;63.23;;;;;;;;;;5069946;28;20311;-90
2023/04/15 14:09:23;;;;;;;82.80;59.63;;;;;;;;;;5069905;28;20180;-90
2023/04/15 14:11:52;;;;;;;210.40;152.13;;;;;;;;;;5071637;28;20169;-93
2023/04/15 14:14:18;;;;;;;17.63;13.17;;;;;;;;;;5086317;28;20185;-90
2023/04/15 14:16:44;;;;;;;268.20;162.30;;;;;;;;;;5071993;28;20215;-91
2023/04/15 14:19:10;;;;;;;20.37;14.47;;;;;;;;;;5071989;28;20310;-91
2023/04/15 14:21:36;;;;;;;17.47;11.07;;;;;;;;;;5070383;28;20686;-90
2023/04/15 14:24:02;;;;;;;29.50;19.03;;;;;;;;;;5071768;28;20184;-93
2023/04/15 14:26:28;;;;;;;41.20;25.93;;;;;;;;;;5074020;28;20284;-95
2023/04/15 14:28:54;;;;;;;101.97;67.17;;;;;;;;;;5075500;28;20180;-94